Richmond's Hourly Summary for Tuesday, April 18, 2017
Hour Temp
(f)
RH
(%)
Solar Rad.
(MJ/m2)
Rainfall
(in)
Wind
(mph)
4/18/2017 12:00 AM 68 96 0 0.01 1.22
4/18/2017 1:00 AM 68 96 0 0.03 1.91
4/18/2017 2:00 AM 67 94 0 0.01 3.6
4/18/2017 3:00 AM 67 92 0 0 5.8
4/18/2017 4:00 AM 66 93 0 0.21 5.52
4/18/2017 5:00 AM 66 91 0 0.13 5.93
4/18/2017 6:00 AM 66 96 0 0 4.85
4/18/2017 7:00 AM 66 97 0 0.54 4.07
4/18/2017 8:00 AM 66 98 0 0.18 4.74
4/18/2017 9:00 AM 66 98 0.04 0.32 5.94
4/18/2017 10:00 AM 66 97 0.3 0.05 3.92
4/18/2017 11:00 AM 68 89 1.15 0.01 6.35
4/18/2017 12:00 PM 68 88 0.98 0 6.59
4/18/2017 1:00 PM 69 88 0.9 0 4.23
4/18/2017 2:00 PM 71 85 1.21 0 3.29
4/18/2017 3:00 PM 72 78 1.28 0 4.43
4/18/2017 4:00 PM 73 73 1.66 0 6.03
4/18/2017 5:00 PM 74 71 1.65 0 5.7
4/18/2017 6:00 PM 74 71 0.94 0 5.72
4/18/2017 7:00 PM 73 72 0.48 0 7.02
4/18/2017 8:00 PM 71 82 0.15 0 5.11
4/18/2017 9:00 PM 70 84 0 0 4.49
4/18/2017 10:00 PM 69 89 0 0 4.31
4/18/2017 11:00 PM 68 92 0 0 2.57
Data Summary 68 87 10.74 1.49 4.72